sensor_id;sensor_type;location;lat;lon;timestamp;temperature;humidity
47514;DHT22;33951;51.988;5.910;2023-10-08T07:18:00;15.60;99.90
47514;DHT22;33951;51.988;5.910;2023-10-08T07:20:44;15.60;99.90
47514;DHT22;33951;51.988;5.910;2023-10-08T07:23:18;15.70;99.90
47514;DHT22;33951;51.988;5.910;2023-10-08T07:26:29;15.80;99.90
47514;DHT22;33951;51.988;5.910;2023-10-08T07:29:25;15.80;99.90
47514;DHT22;33951;51.988;5.910;2023-10-08T07:31:53;15.80;99.90
47514;DHT22;33951;51.988;5.910;2023-10-08T07:34:47;15.90;99.90
47514;DHT22;33951;51.988;5.910;2023-10-08T07:37:22;15.90;99.90
47514;DHT22;33951;51.988;5.910;2023-10-08T07:39:59;16.00;99.90
47514;DHT22;33951;51.988;5.910;2023-10-08T07:42:28;16.20;99.90
47514;DHT22;33951;51.988;5.910;2023-10-08T07:44:57;16.20;99.90
47514;DHT22;33951;51.988;5.910;2023-10-08T07:47:32;16.10;99.90
47514;DHT22;33951;51.988;5.910;2023-10-08T07:50:04;16.20;99.90
47514;DHT22;33951;51.988;5.910;2023-10-08T07:55:35;16.30;99.90
47514;DHT22;33951;51.988;5.910;2023-10-08T07:58:08;16.20;99.90
47514;DHT22;33951;51.988;5.910;2023-10-08T08:00:35;16.20;99.90
47514;DHT22;33951;51.988;5.910;2023-10-08T08:03:12;16.20;99.90
47514;DHT22;33951;51.988;5.910;2023-10-08T08:05:43;16.20;99.90
47514;DHT22;33951;51.988;5.910;2023-10-08T08:08:23;16.00;99.90
47514;DHT22;33951;51.988;5.910;2023-10-08T08:11:02;16.00;99.90
47514;DHT22;33951;51.988;5.910;2023-10-08T08:14:00;16.10;99.90
47514;DHT22;33951;51.988;5.910;2023-10-08T08:19:22;16.20;99.90
47514;DHT22;33951;51.988;5.910;2023-10-08T08:21:53;16.20;99.90
47514;DHT22;33951;51.988;5.910;2023-10-08T08:24:37;16.20;99.90
47514;DHT22;33951;51.988;5.910;2023-10-08T08:27:03;16.20;99.90
47514;DHT22;33951;51.988;5.910;2023-10-08T08:29:54;16.20;99.90
47514;DHT22;33951;51.988;5.910;2023-10-08T08:32:43;16.20;99.90
47514;DHT22;33951;51.988;5.910;2023-10-08T08:35:22;16.30;99.90
47514;DHT22;33951;51.988;5.910;2023-10-08T08:38:47;16.40;99.90
47514;DHT22;33951;51.988;5.910;2023-10-08T08:41:05;16.50;99.90
47514;DHT22;33951;51.988;5.910;2023-10-08T08:43:39;16.50;99.90
47514;DHT22;33951;51.988;5.910;2023-10-08T08:46:10;16.50;99.90
47514;DHT22;33951;51.988;5.910;2023-10-08T08:48:50;16.50;99.90
47514;DHT22;33951;51.988;5.910;2023-10-08T08:51:27;16.50;99.90
47514;DHT22;33951;51.988;5.910;2023-10-08T08:54:18;16.50;99.90
47514;DHT22;33951;51.988;5.910;2023-10-08T08:57:02;16.60;99.90
47514;DHT22;33951;51.988;5.910;2023-10-08T09:00:26;16.60;99.90
47514;DHT22;33951;51.988;5.910;2023-10-08T09:28:44;16.80;99.90
47514;DHT22;33951;51.988;5.910;2023-10-08T09:40:58;17.10;99.90
47514;DHT22;33951;51.988;5.910;2023-10-08T09:47:22;17.10;99.90
47514;DHT22;33951;51.988;5.910;2023-10-08T09:50:14;17.20;99.90
47514;DHT22;33951;51.988;5.910;2023-10-08T09:56:44;17.20;99.90
47514;DHT22;33951;51.988;5.910;2023-10-08T09:59:13;17.20;99.90
47514;DHT22;33951;51.988;5.910;2023-10-08T10:02:14;17.50;99.90
47514;DHT22;33951;51.988;5.910;2023-10-08T10:05:10;17.60;99.90
47514;DHT22;33951;51.988;5.910;2023-10-08T10:07:47;17.60;99.90
47514;DHT22;33951;51.988;5.910;2023-10-08T10:16:12;17.80;99.90
47514;DHT22;33951;51.988;5.910;2023-10-08T10:37:33;18.20;99.90
47514;DHT22;33951;51.988;5.910;2023-10-08T10:44:16;18.40;99.90
47514;DHT22;33951;51.988;5.910;2023-10-08T10:47:52;18.50;99.90
47514;DHT22;33951;51.988;5.910;2023-10-08T10:57:39;18.60;99.90
47514;DHT22;33951;51.988;5.910;2023-10-08T11:20:39;19.00;99.90
47514;DHT22;33951;51.988;5.910;2023-10-08T11:24:07;19.10;99.90
47514;DHT22;33951;51.988;5.910;2023-10-08T11:30:21;19.20;99.90
47514;DHT22;33951;51.988;5.910;2023-10-08T11:33:09;19.30;99.90
47514;DHT22;33951;51.988;5.910;2023-10-08T11:40:10;19.50;99.90
47514;DHT22;33951;51.988;5.910;2023-10-08T11:43:07;19.50;99.90
47514;DHT22;33951;51.988;5.910;2023-10-08T11:45:48;19.40;99.90
47514;DHT22;33951;51.988;5.910;2023-10-08T11:48:37;19.40;99.90
47514;DHT22;33951;51.988;5.910;2023-10-08T12:50:07;18.80;99.90
47514;DHT22;33951;51.988;5.910;2023-10-08T15:58:00;18.70;99.90
47514;DHT22;33951;51.988;5.910;2023-10-08T16:00:44;18.70;99.90
47514;DHT22;33951;51.988;5.910;2023-10-08T16:03:17;18.60;99.90
47514;DHT22;33951;51.988;5.910;2023-10-08T16:05:48;18.60;99.90
47514;DHT22;33951;51.988;5.910;2023-10-08T16:08:17;18.60;99.90
47514;DHT22;33951;51.988;5.910;2023-10-08T16:10:51;18.60;99.90
47514;DHT22;33951;51.988;5.910;2023-10-08T16:13:17;18.60;99.90
47514;DHT22;33951;51.988;5.910;2023-10-08T16:15:56;18.70;99.90
47514;DHT22;33951;51.988;5.910;2023-10-08T16:18:24;18.70;99.90
47514;DHT22;33951;51.988;5.910;2023-10-08T16:20:51;18.60;99.90
47514;DHT22;33951;51.988;5.910;2023-10-08T16:23:24;18.50;99.90
47514;DHT22;33951;51.988;5.910;2023-10-08T16:26:01;18.50;99.90
47514;DHT22;33951;51.988;5.910;2023-10-08T16:28:31;18.50;99.90
47514;DHT22;33951;51.988;5.910;2023-10-08T16:31:02;18.40;99.90
47514;DHT22;33951;51.988;5.910;2023-10-08T16:34:14;18.30;99.90
47514;DHT22;33951;51.988;5.910;2023-10-08T16:37:08;18.20;99.90
47514;DHT22;33951;51.988;5.910;2023-10-08T16:39:48;18.20;99.90
47514;DHT22;33951;51.988;5.910;2023-10-08T16:42:16;18.20;99.90
47514;DHT22;33951;51.988;5.910;2023-10-08T16:44:44;18.10;99.90
47514;DHT22;33951;51.988;5.910;2023-10-08T16:49:51;18.10;99.90
47514;DHT22;33951;51.988;5.910;2023-10-08T16:52:21;18.00;99.90
47514;DHT22;33951;51.988;5.910;2023-10-08T16:54:58;18.00;99.90
47514;DHT22;33951;51.988;5.910;2023-10-08T16:57:33;18.00;99.90
47514;DHT22;33951;51.988;5.910;2023-10-08T17:00:04;17.90;99.90
47514;DHT22;33951;51.988;5.910;2023-10-08T17:02:44;17.90;99.90
47514;DHT22;33951;51.988;5.910;2023-10-08T17:05:27;17.90;99.90
47514;DHT22;33951;51.988;5.910;2023-10-08T17:07:59;17.90;99.90
47514;DHT22;33951;51.988;5.910;2023-10-08T17:10:25;17.80;99.90
47514;DHT22;33951;51.988;5.910;2023-10-08T17:12:58;17.80;99.90
47514;DHT22;33951;51.988;5.910;2023-10-08T17:15:33;17.80;99.90
47514;DHT22;33951;51.988;5.910;2023-10-08T17:18:07;17.80;99.90
47514;DHT22;33951;51.988;5.910;2023-10-08T17:20:39;17.70;99.90
47514;DHT22;33951;51.988;5.910;2023-10-08T17:23:39;17.70;99.90
47514;DHT22;33951;51.988;5.910;2023-10-08T17:26:12;17.60;99.90
47514;DHT22;33951;51.988;5.910;2023-10-08T17:28:48;17.60;99.90
47514;DHT22;33951;51.988;5.910;2023-10-08T17:31:14;17.50;99.90
47514;DHT22;33951;51.988;5.910;2023-10-08T17:33:45;17.40;99.90
47514;DHT22;33951;51.988;5.910;2023-10-08T17:36:13;17.40;99.90
47514;DHT22;33951;51.988;5.910;2023-10-08T17:38:52;17.30;99.90
47514;DHT22;33951;51.988;5.910;2023-10-08T17:41:30;17.20;99.90
47514;DHT22;33951;51.988;5.910;2023-10-08T17:43:59;17.20;99.90
47514;DHT22;33951;51.988;5.910;2023-10-08T17:46:28;17.20;99.90
47514;DHT22;33951;51.988;5.910;2023-10-08T17:49:02;17.10;99.90
47514;DHT22;33951;51.988;5.910;2023-10-08T17:51:41;17.10;99.90
47514;DHT22;33951;51.988;5.910;2023-10-08T17:54:19;17.10;99.90
47514;DHT22;33951;51.988;5.910;2023-10-08T17:56:59;17.00;99.90
47514;DHT22;33951;51.988;5.910;2023-10-08T17:59:27;17.00;99.90
47514;DHT22;33951;51.988;5.910;2023-10-08T18:01:55;17.00;99.90
47514;DHT22;33951;51.988;5.910;2023-10-08T18:04:29;17.00;99.90
47514;DHT22;33951;51.988;5.910;2023-10-08T18:06:58;16.80;99.90
47514;DHT22;33951;51.988;5.910;2023-10-08T18:09:24;16.80;99.90
47514;DHT22;33951;51.988;5.910;2023-10-08T18:14:59;16.80;99.90
47514;DHT22;33951;51.988;5.910;2023-10-08T18:17:39;16.60;99.90
47514;DHT22;33951;51.988;5.910;2023-10-08T18:20:35;16.60;99.90
47514;DHT22;33951;51.988;5.910;2023-10-08T18:23:46;16.50;99.90
47514;DHT22;33951;51.988;5.910;2023-10-08T18:26:18;16.60;99.90
47514;DHT22;33951;51.988;5.910;2023-10-08T18:28:48;16.50;99.90
47514;DHT22;33951;51.988;5.910;2023-10-08T18:31:23;16.40;99.90
47514;DHT22;33951;51.988;5.910;2023-10-08T18:33:57;16.50;99.90
47514;DHT22;33951;51.988;5.910;2023-10-08T18:36:38;16.50;99.90
47514;DHT22;33951;51.988;5.910;2023-10-08T18:39:17;16.50;99.90
47514;DHT22;33951;51.988;5.910;2023-10-08T18:42:04;16.30;99.90
47514;DHT22;33951;51.988;5.910;2023-10-08T18:44:33;16.40;99.90
47514;DHT22;33951;51.988;5.910;2023-10-08T18:47:04;16.40;99.90
47514;DHT22;33951;51.988;5.910;2023-10-08T18:49:34;16.30;99.90
47514;DHT22;33951;51.988;5.910;2023-10-08T18:52:03;16.20;99.90
47514;DHT22;33951;51.988;5.910;2023-10-08T18:54:41;16.20;99.90
47514;DHT22;33951;51.988;5.910;2023-10-08T18:57:17;16.20;99.90
47514;DHT22;33951;51.988;5.910;2023-10-08T18:59:46;16.20;99.90
47514;DHT22;33951;51.988;5.910;2023-10-08T19:02:14;16.30;99.90
47514;DHT22;33951;51.988;5.910;2023-10-08T19:04:52;16.20;99.90
47514;DHT22;33951;51.988;5.910;2023-10-08T19:07:21;16.10;99.90
47514;DHT22;33951;51.988;5.910;2023-10-08T19:09:50;16.10;99.90
47514;DHT22;33951;51.988;5.910;2023-10-08T19:12:16;16.10;99.90
47514;DHT22;33951;51.988;5.910;2023-10-08T19:14:53;16.10;99.90
47514;DHT22;33951;51.988;5.910;2023-10-08T19:17:38;16.00;99.90
47514;DHT22;33951;51.988;5.910;2023-10-08T19:20:13;16.10;99.90
47514;DHT22;33951;51.988;5.910;2023-10-08T19:22:42;16.00;99.90
47514;DHT22;33951;51.988;5.910;2023-10-08T19:25:08;16.10;99.90
47514;DHT22;33951;51.988;5.910;2023-10-08T19:27:48;16.10;99.90
47514;DHT22;33951;51.988;5.910;2023-10-08T19:30:17;16.10;99.90
47514;DHT22;33951;51.988;5.910;2023-10-08T19:32:56;16.10;99.90
47514;DHT22;33951;51.988;5.910;2023-10-08T19:35:25;16.10;99.90
47514;DHT22;33951;51.988;5.910;2023-10-08T19:38:11;15.90;99.90
47514;DHT22;33951;51.988;5.910;2023-10-08T19:40:53;15.90;99.90
47514;DHT22;33951;51.988;5.910;2023-10-08T19:43:19;15.70;99.90
47514;DHT22;33951;51.988;5.910;2023-10-08T19:45:48;15.60;99.90
47514;DHT22;33951;51.988;5.910;2023-10-08T19:48:28;15.70;99.90
47514;DHT22;33951;51.988;5.910;2023-10-08T19:51:13;15.70;99.90
47514;DHT22;33951;51.988;5.910;2023-10-08T19:54:10;15.70;99.90
47514;DHT22;33951;51.988;5.910;2023-10-08T19:57:13;15.70;99.90
47514;DHT22;33951;51.988;5.910;2023-10-08T20:00:15;15.70;99.90
47514;DHT22;33951;51.988;5.910;2023-10-08T20:02:42;15.60;99.90
47514;DHT22;33951;51.988;5.910;2023-10-08T20:05:12;15.60;99.90
47514;DHT22;33951;51.988;5.910;2023-10-08T20:07:42;15.70;99.90
47514;DHT22;33951;51.988;5.910;2023-10-08T20:10:18;15.60;99.90
47514;DHT22;33951;51.988;5.910;2023-10-08T20:15:42;15.60;99.90
47514;DHT22;33951;51.988;5.910;2023-10-08T20:18:28;15.60;99.90
47514;DHT22;33951;51.988;5.910;2023-10-08T20:20:55;15.50;99.90
47514;DHT22;33951;51.988;5.910;2023-10-08T20:23:21;15.50;99.90
47514;DHT22;33951;51.988;5.910;2023-10-08T20:26:16;15.50;99.90
47514;DHT22;33951;51.988;5.910;2023-10-08T20:29:13;15.40;99.90
47514;DHT22;33951;51.988;5.910;2023-10-08T20:31:42;15.50;99.90
47514;DHT22;33951;51.988;5.910;2023-10-08T20:34:10;15.40;99.90
47514;DHT22;33951;51.988;5.910;2023-10-08T20:36:40;15.40;99.90
47514;DHT22;33951;51.988;5.910;2023-10-08T20:39:11;15.30;99.90
47514;DHT22;33951;51.988;5.910;2023-10-08T20:41:48;15.40;99.90
47514;DHT22;33951;51.988;5.910;2023-10-08T20:44:14;15.40;99.90
47514;DHT22;33951;51.988;5.910;2023-10-08T20:46:50;15.40;99.90
47514;DHT22;33951;51.988;5.910;2023-10-08T20:49:16;15.40;99.90
47514;DHT22;33951;51.988;5.910;2023-10-08T20:52:18;15.40;99.90
47514;DHT22;33951;51.988;5.910;2023-10-08T20:54:46;15.40;99.90
47514;DHT22;33951;51.988;5.910;2023-10-08T20:57:14;15.30;99.90
47514;DHT22;33951;51.988;5.910;2023-10-08T20:59:44;15.30;99.90
47514;DHT22;33951;51.988;5.910;2023-10-08T21:02:14;15.30;99.90
47514;DHT22;33951;51.988;5.910;2023-10-08T21:04:43;15.30;99.90
47514;DHT22;33951;51.988;5.910;2023-10-08T21:07:09;15.20;99.90
47514;DHT22;33951;51.988;5.910;2023-10-08T21:09:35;15.30;99.90
47514;DHT22;33951;51.988;5.910;2023-10-08T21:12:13;15.30;99.90
47514;DHT22;33951;51.988;5.910;2023-10-08T21:14:42;15.30;99.90
47514;DHT22;33951;51.988;5.910;2023-10-08T21:17:16;15.30;99.90
47514;DHT22;33951;51.988;5.910;2023-10-08T21:19:47;15.30;99.90
47514;DHT22;33951;51.988;5.910;2023-10-08T21:22:13;15.40;99.90
47514;DHT22;33951;51.988;5.910;2023-10-08T21:24:52;15.40;99.90
47514;DHT22;33951;51.988;5.910;2023-10-08T21:27:20;15.40;99.90
47514;DHT22;33951;51.988;5.910;2023-10-08T21:29:48;15.30;99.90
47514;DHT22;33951;51.988;5.910;2023-10-08T21:32:14;15.30;99.90
47514;DHT22;33951;51.988;5.910;2023-10-08T21:34:58;15.10;99.90
47514;DHT22;33951;51.988;5.910;2023-10-08T21:37:35;15.10;99.90
47514;DHT22;33951;51.988;5.910;2023-10-08T21:40:01;15.00;99.90
47514;DHT22;33951;51.988;5.910;2023-10-08T21:42:48;15.10;99.90
47514;DHT22;33951;51.988;5.910;2023-10-08T21:45:21;15.20;99.90
47514;DHT22;33951;51.988;5.910;2023-10-08T21:47:54;15.20;99.90
47514;DHT22;33951;51.988;5.910;2023-10-08T21:50:33;15.20;99.90
47514;DHT22;33951;51.988;5.910;2023-10-08T21:53:17;15.10;99.90
47514;DHT22;33951;51.988;5.910;2023-10-08T22:17:23;15.00;99.90
47514;DHT22;33951;51.988;5.910;2023-10-08T22:47:37;14.60;99.90
47514;DHT22;33951;51.988;5.910;2023-10-08T22:50:27;14.50;99.90
47514;DHT22;33951;51.988;5.910;2023-10-08T22:54:14;14.70;99.90
47514;DHT22;33951;51.988;5.910;2023-10-08T22:57:18;14.50;99.90
47514;DHT22;33951;51.988;5.910;2023-10-08T23:00:24;14.40;99.90
47514;DHT22;33951;51.988;5.910;2023-10-08T23:03:18;14.50;99.90
47514;DHT22;33951;51.988;5.910;2023-10-08T23:09:37;14.30;99.90
47514;DHT22;33951;51.988;5.910;2023-10-08T23:12:50;14.40;99.90
47514;DHT22;33951;51.988;5.910;2023-10-08T23:16:05;14.40;99.90
47514;DHT22;33951;51.988;5.910;2023-10-08T23:18:56;14.40;99.90
47514;DHT22;33951;51.988;5.910;2023-10-08T23:22:16;14.50;99.90
47514;DHT22;33951;51.988;5.910;2023-10-08T23:24:43;14.60;99.90
47514;DHT22;33951;51.988;5.910;2023-10-08T23:27:20;14.70;99.90
47514;DHT22;33951;51.988;5.910;2023-10-08T23:33:25;14.90;99.90
47514;DHT22;33951;51.988;5.910;2023-10-08T23:39:39;15.00;99.90
47514;DHT22;33951;51.988;5.910;2023-10-08T23:42:46;15.20;99.90
